createdAt,value
2018-01-15T00:00:20.113Z,89.77
2018-01-15T00:01:20.085Z,89.49
2018-01-15T00:02:20.069Z,89.77
2018-01-15T00:03:20.056Z,89.20
2018-01-15T00:04:20.042Z,88.96
2018-01-15T00:05:20.029Z,88.59
2018-01-15T00:06:20.014Z,88.59
2018-01-15T00:07:20.000Z,88.78
2018-01-15T00:08:19.985Z,88.78
2018-01-15T00:09:19.972Z,88.40
2018-01-15T00:10:19.957Z,88.78
2018-01-15T00:11:19.953Z,88.11
2018-01-15T00:12:19.931Z,87.83
2018-01-15T00:13:19.916Z,87.45
2018-01-15T00:14:19.907Z,87.83
2018-01-15T00:15:19.888Z,87.54
2018-01-15T00:16:19.885Z,87.64
2018-01-15T00:17:19.862Z,87.45
2018-01-15T00:18:19.846Z,87.73
2018-01-15T00:19:19.833Z,87.64
2018-01-15T00:20:19.819Z,87.16
2018-01-15T00:21:19.806Z,87.26
2018-01-15T00:22:19.793Z,86.69
2018-01-15T00:23:19.780Z,87.54
2018-01-15T00:24:19.764Z,87.54
2018-01-15T00:25:19.751Z,87.45
2018-01-15T00:26:19.737Z,87.26
2018-01-15T00:27:19.724Z,87.73
2018-01-15T00:28:19.710Z,87.45
2018-01-15T00:29:19.696Z,87.45
2018-01-15T00:30:19.682Z,87.16
2018-01-15T00:31:19.670Z,87.16
2018-01-15T00:32:19.657Z,87.26
2018-01-15T00:33:19.647Z,87.40
2018-01-15T00:34:19.628Z,87.12
2018-01-15T00:35:19.615Z,86.83
2018-01-15T00:36:19.602Z,86.64
2018-01-15T00:37:19.590Z,86.64
2018-01-15T00:38:19.575Z,86.74
2018-01-15T00:39:19.562Z,86.55
2018-01-15T00:40:19.549Z,87.12
2018-01-15T00:41:19.537Z,86.35
2018-01-15T00:42:19.532Z,86.26
2018-01-15T00:43:19.508Z,86.07
2018-01-15T00:44:19.494Z,85.97
2018-01-15T00:45:19.482Z,85.97
2018-01-15T00:46:19.468Z,85.69
2018-01-15T00:47:19.456Z,86.07
2018-01-15T00:48:19.441Z,86.07
2018-01-15T00:49:19.429Z,85.69
2018-01-15T00:50:19.414Z,86.26
2018-01-15T00:51:19.402Z,85.78
2018-01-15T00:52:19.389Z,85.50
2018-01-15T00:53:19.375Z,85.31
2018-01-15T00:54:19.361Z,86.26
2018-01-15T00:55:19.448Z,85.60
2018-01-15T00:56:19.336Z,85.69
2018-01-15T00:57:19.322Z,85.78
2018-01-15T00:58:19.308Z,85.78
2018-01-15T00:59:19.294Z,85.60
2018-01-15T01:00:19.286Z,85.50
2018-01-15T01:01:19.273Z,86.16
2018-01-15T01:02:19.260Z,86.07
2018-01-15T01:03:19.247Z,85.88
2018-01-15T01:04:19.234Z,85.88
2018-01-15T01:05:19.217Z,86.35
2018-01-15T01:06:19.204Z,85.69
2018-01-15T01:07:19.190Z,85.78
2018-01-15T01:08:19.180Z,85.50
2018-01-15T01:09:19.164Z,86.16
2018-01-15T01:10:19.152Z,86.07
2018-01-15T01:11:19.138Z,86.35
2018-01-15T01:12:19.137Z,86.07
2018-01-15T01:13:19.114Z,86.16
2018-01-15T01:14:19.098Z,86.26
2018-01-15T01:15:19.086Z,85.97
2018-01-15T01:16:19.073Z,85.60
2018-01-15T01:17:19.060Z,86.16
2018-01-15T01:18:19.047Z,85.78
2018-01-15T01:19:19.034Z,86.07
2018-01-15T01:20:19.021Z,85.69
2018-01-15T01:21:19.008Z,86.16
2018-01-15T01:22:18.994Z,85.50
2018-01-15T01:23:18.997Z,86.55
2018-01-15T01:24:18.969Z,85.88
2018-01-15T01:25:18.956Z,86.16
2018-01-15T01:26:18.942Z,86.11
2018-01-15T01:27:18.929Z,86.11
2018-01-15T01:28:18.927Z,86.26
2018-01-15T01:29:18.904Z,86.07
2018-01-15T01:30:18.890Z,86.07
2018-01-15T01:31:18.878Z,86.74
2018-01-15T01:32:18.865Z,86.45
2018-01-15T01:33:18.853Z,86.55
2018-01-15T01:34:18.839Z,86.74
2018-01-15T01:35:18.834Z,86.59
2018-01-15T01:36:18.813Z,87.16
2018-01-15T01:37:18.802Z,87.16
2018-01-15T01:38:18.787Z,86.40
2018-01-15T01:39:18.784Z,86.49
2018-01-15T01:40:18.763Z,86.40
2018-01-15T01:41:18.750Z,86.21
2018-01-15T01:42:18.736Z,86.21
2018-01-15T01:43:18.724Z,86.21
2018-01-15T01:44:18.720Z,86.59
2018-01-15T01:45:18.700Z,86.02
2018-01-15T01:46:18.686Z,86.21
2018-01-15T01:47:18.674Z,86.30
2018-01-15T01:48:18.661Z,86.40
2018-01-15T01:49:18.653Z,86.30
2018-01-15T01:50:18.636Z,86.40
2018-01-15T01:51:18.623Z,85.74
2018-01-15T01:52:18.610Z,86.02
2018-01-15T01:53:18.598Z,86.21
2018-01-15T01:54:18.584Z,86.11
2018-01-15T01:55:18.571Z,86.02
2018-01-15T01:56:18.558Z,85.83
2018-01-15T01:57:18.546Z,86.21
2018-01-15T01:58:18.533Z,86.11
2018-01-15T01:59:18.521Z,85.55
2018-01-15T02:00:18.508Z,85.55
2018-01-15T02:01:18.495Z,86.11
2018-01-15T02:02:18.482Z,86.30
2018-01-15T02:03:18.469Z,85.55
2018-01-15T02:04:18.457Z,85.93
2018-01-15T02:05:18.445Z,86.02
2018-01-15T02:06:18.430Z,85.93
2018-01-15T02:07:18.418Z,85.45
2018-01-15T02:08:18.404Z,86.11
2018-01-15T02:09:18.408Z,86.11
2018-01-15T02:10:18.379Z,86.11
2018-01-15T02:11:18.369Z,86.11
2018-01-15T02:12:18.354Z,86.21
2018-01-15T02:13:18.341Z,85.83
2018-01-15T02:14:18.329Z,85.93
2018-01-15T02:15:18.318Z,86.40
2018-01-15T02:16:18.302Z,86.02
2018-01-15T02:17:18.289Z,85.55
2018-01-15T02:18:18.276Z,86.21
2018-01-15T02:19:18.264Z,86.11
2018-01-15T02:20:18.252Z,86.11
2018-01-15T02:21:18.239Z,86.21
2018-01-15T02:22:18.224Z,85.74
2018-01-15T02:23:18.214Z,86.11
2018-01-15T02:24:18.201Z,85.45
2018-01-15T02:25:18.188Z,85.74
2018-01-15T02:26:18.174Z,85.74
2018-01-15T02:27:18.161Z,85.45
2018-01-15T02:28:18.148Z,85.26
2018-01-15T02:29:18.136Z,85.55
2018-01-15T02:30:18.123Z,85.36
2018-01-15T02:31:18.110Z,85.26
2018-01-15T02:32:18.097Z,85.64
2018-01-15T02:33:18.085Z,85.74
2018-01-15T02:34:18.073Z,86.11
2018-01-15T02:35:18.059Z,86.11
2018-01-15T02:36:18.045Z,86.11
2018-01-15T02:37:18.034Z,85.64
2018-01-15T02:38:18.019Z,85.55
2018-01-15T02:39:18.007Z,86.21
2018-01-15T02:40:18.003Z,85.36
2018-01-15T02:41:18.082Z,85.74
2018-01-15T02:42:17.969Z,86.21
2018-01-15T02:43:17.956Z,85.74
2018-01-15T02:44:17.943Z,85.83
2018-01-15T02:45:17.932Z,86.02
2018-01-15T02:46:17.920Z,86.49
2018-01-15T02:47:17.907Z,86.02
2018-01-15T02:48:17.891Z,86.30
2018-01-15T02:49:17.879Z,85.74
2018-01-15T02:50:17.867Z,86.40
2018-01-15T02:51:17.862Z,86.30
2018-01-15T02:52:17.843Z,86.40
2018-01-15T02:53:17.829Z,86.59
2018-01-15T02:54:17.815Z,86.21
2018-01-15T02:55:17.803Z,85.93
2018-01-15T02:56:17.799Z,85.93
2018-01-15T02:57:17.778Z,86.02
2018-01-15T02:58:17.764Z,86.11
2018-01-15T02:59:17.752Z,86.21
2018-01-15T03:00:17.740Z,86.49
2018-01-15T03:01:17.727Z,86.30
2018-01-15T03:02:17.714Z,86.44
2018-01-15T03:03:17.701Z,86.44
2018-01-15T03:04:17.690Z,86.21
2018-01-15T03:05:17.682Z,86.44
2018-01-15T03:06:17.665Z,86.54
2018-01-15T03:07:17.652Z,85.87
2018-01-15T03:08:17.638Z,85.59
2018-01-15T03:09:17.626Z,85.97
2018-01-15T03:10:17.613Z,86.16
2018-01-15T03:11:17.601Z,86.16
2018-01-15T03:12:17.596Z,86.16
2018-01-15T03:13:17.576Z,86.25
2018-01-15T03:14:17.562Z,86.16
2018-01-15T03:15:17.550Z,86.91
2018-01-15T03:16:17.538Z,86.35
2018-01-15T03:17:17.526Z,85.87
2018-01-15T03:18:17.512Z,85.97
2018-01-15T03:19:17.501Z,86.63
2018-01-15T03:20:17.587Z,85.97
2018-01-15T03:21:17.475Z,86.35
2018-01-15T03:22:17.471Z,85.97
2018-01-15T03:23:17.450Z,86.54
2018-01-15T03:24:17.438Z,86.54
2018-01-15T03:25:17.425Z,86.54
2018-01-15T03:26:17.413Z,86.25
2018-01-15T03:27:17.400Z,86.44
2018-01-15T03:28:17.387Z,86.35
2018-01-15T03:29:17.375Z,86.25
2018-01-15T03:30:17.363Z,86.54
2018-01-15T03:31:17.350Z,86.16
2018-01-15T03:32:17.338Z,86.72
2018-01-15T03:33:17.325Z,86.25
2018-01-15T03:34:17.312Z,86.25
2018-01-15T03:35:17.299Z,86.54
2018-01-15T03:36:17.288Z,86.16
2018-01-15T03:37:17.275Z,86.35
2018-01-15T03:38:17.261Z,86.44
2018-01-15T03:39:17.249Z,86.44
2018-01-15T03:40:17.236Z,86.16
2018-01-15T03:41:17.230Z,86.44
2018-01-15T03:42:17.210Z,86.63
2018-01-15T03:43:17.198Z,86.63
2018-01-15T03:44:17.186Z,86.35
2018-01-15T03:45:17.173Z,86.63
2018-01-15T03:46:17.160Z,86.72
2018-01-15T03:47:17.150Z,87.01
2018-01-15T03:48:17.135Z,86.63
2018-01-15T03:49:17.123Z,87.20
2018-01-15T03:50:17.109Z,87.11
2018-01-15T03:51:17.098Z,87.11
2018-01-15T03:52:17.093Z,87.49
2018-01-15T03:53:17.073Z,87.11
2018-01-15T03:54:17.059Z,87.01
2018-01-15T03:55:17.051Z,87.30
2018-01-15T03:56:17.036Z,87.30
2018-01-15T03:57:17.024Z,87.30
2018-01-15T03:58:17.010Z,87.49
2018-01-15T03:59:16.997Z,87.49
2018-01-15T04:00:16.985Z,87.58
2018-01-15T04:01:16.976Z,87.87
2018-01-15T04:02:16.960Z,87.68
2018-01-15T04:03:16.960Z,87.77
2018-01-15T04:04:16.935Z,87.30
2018-01-15T04:05:16.923Z,87.39
2018-01-15T04:06:16.910Z,87.30
2018-01-15T04:07:16.897Z,87.20
2018-01-15T04:08:16.894Z,87.58
2018-01-15T04:09:16.874Z,87.30
2018-01-15T04:10:16.863Z,87.30
2018-01-15T04:11:16.848Z,87.77
2018-01-15T04:12:16.841Z,87.30
2018-01-15T04:13:16.824Z,87.20
2018-01-15T04:14:16.810Z,87.30
2018-01-15T04:15:16.798Z,87.11
2018-01-15T04:16:16.785Z,87.39
2018-01-15T04:17:16.772Z,87.39
2018-01-15T04:18:16.760Z,87.39
2018-01-15T04:19:16.748Z,87.49
2018-01-15T04:20:16.735Z,87.39
2018-01-15T04:21:16.723Z,87.20
2018-01-15T04:22:16.709Z,87.01
2018-01-15T04:23:16.697Z,87.20
2018-01-15T04:24:16.685Z,87.58
2018-01-15T04:25:16.672Z,87.96
2018-01-15T04:26:16.658Z,87.87
2018-01-15T04:27:16.646Z,88.06
2018-01-15T04:28:16.635Z,87.87
2018-01-15T04:29:16.623Z,87.96
2018-01-15T04:30:16.608Z,87.58
2018-01-15T04:31:16.597Z,87.77
2018-01-15T04:32:16.584Z,87.87
2018-01-15T04:33:16.572Z,87.87
2018-01-15T04:34:16.558Z,88.06
2018-01-15T04:35:16.546Z,87.77
2018-01-15T04:36:16.533Z,88.15
2018-01-15T04:37:16.521Z,88.34
2018-01-15T04:38:16.509Z,88.20
2018-01-15T04:39:16.495Z,88.20
2018-01-15T04:40:16.482Z,88.29
2018-01-15T04:41:16.470Z,88.39
2018-01-15T04:42:16.456Z,88.20
2018-01-15T04:43:16.445Z,88.39
2018-01-15T04:44:16.432Z,88.87
2018-01-15T04:45:16.419Z,88.58
2018-01-15T04:46:16.405Z,88.68
2018-01-15T04:47:16.392Z,88.96
2018-01-15T04:48:16.380Z,88.87
2018-01-15T04:49:16.367Z,88.48
2018-01-15T04:50:16.354Z,89.06
2018-01-15T04:51:16.340Z,89.81
2018-01-15T04:52:16.328Z,89.72
2018-01-15T04:53:16.315Z,89.53
2018-01-15T04:54:16.302Z,89.91
2018-01-15T04:55:16.289Z,90.00
2018-01-15T04:56:16.275Z,90.00
2018-01-15T04:57:16.262Z,90.00
2018-01-15T04:58:16.249Z,90.19
2018-01-15T04:59:16.236Z,90.43
2018-01-15T05:00:16.222Z,89.67
2018-01-15T05:01:16.208Z,90.05
2018-01-15T05:02:16.195Z,89.96
2018-01-15T05:03:16.181Z,89.67
2018-01-15T05:04:16.169Z,89.86
2018-01-15T05:05:16.156Z,90.24
2018-01-15T05:06:16.140Z,90.62
2018-01-15T05:07:16.126Z,91.09
2018-01-15T05:08:16.114Z,90.81
2018-01-15T05:09:16.101Z,90.43
2018-01-15T05:10:16.087Z,90.81
2018-01-15T05:11:16.073Z,90.72
2018-01-15T05:12:16.060Z,90.43
2018-01-15T05:13:16.046Z,90.43
2018-01-15T05:14:16.032Z,90.72
2018-01-15T05:15:16.018Z,90.72
2018-01-15T05:16:16.005Z,90.62
2018-01-15T05:17:15.996Z,90.43
2018-01-15T05:18:15.977Z,90.62
2018-01-15T05:19:15.964Z,90.34
2018-01-15T05:20:15.964Z,90.05
2018-01-15T05:21:15.936Z,91.09
2018-01-15T05:22:15.921Z,90.91
2018-01-15T05:23:15.910Z,90.72
2018-01-15T05:24:15.895Z,90.72
2018-01-15T05:25:15.882Z,90.91
2018-01-15T05:26:15.867Z,91.38
2018-01-15T05:27:15.852Z,91.95
2018-01-15T05:28:15.839Z,91.85
2018-01-15T05:29:15.876Z,91.57
2018-01-15T05:30:15.812Z,91.47
2018-01-15T05:31:15.798Z,91.66
2018-01-15T05:32:15.784Z,91.66
2018-01-15T05:33:15.770Z,92.04
2018-01-15T05:34:15.756Z,92.23
2018-01-15T05:35:15.744Z,91.66
2018-01-15T05:36:15.732Z,91.57
2018-01-15T05:37:15.716Z,91.38
2018-01-15T05:38:15.701Z,91.66
2018-01-15T05:39:15.687Z,91.76
2018-01-15T05:40:15.674Z,92.04
2018-01-15T05:41:15.661Z,92.23
2018-01-15T05:42:15.646Z,92.04
2018-01-15T05:43:15.634Z,91.85
2018-01-15T05:44:15.618Z,92.42
2018-01-15T05:45:15.609Z,92.23
2018-01-15T05:46:15.591Z,91.95
2018-01-15T05:47:15.577Z,92.61
2018-01-15T05:48:15.564Z,92.71
2018-01-15T05:49:15.549Z,92.23
2018-01-15T05:50:15.536Z,92.66
2018-01-15T05:51:15.524Z,92.23
2018-01-15T05:52:15.508Z,92.42
2018-01-15T05:53:15.499Z,92.47
2018-01-15T05:54:15.480Z,92.14
2018-01-15T05:55:15.466Z,92.42
2018-01-15T05:56:15.453Z,92.42
2018-01-15T05:57:15.438Z,92.42
2018-01-15T05:58:15.423Z,92.19
2018-01-15T05:59:15.410Z,92.52
2018-01-15T06:00:15.397Z,92.38
2018-01-15T06:01:15.383Z,92.85
2018-01-15T06:02:15.372Z,92.38
2018-01-15T06:03:15.356Z,92.57
2018-01-15T06:04:15.340Z,93.32
2018-01-15T06:05:15.327Z,93.13
2018-01-15T06:06:15.315Z,92.76
2018-01-15T06:07:15.298Z,93.23
2018-01-15T06:08:15.284Z,92.94
2018-01-15T06:09:15.271Z,92.94
2018-01-15T06:10:15.257Z,92.66
2018-01-15T06:11:15.243Z,92.99
2018-01-15T06:12:15.230Z,93.23
2018-01-15T06:13:15.215Z,92.76
2018-01-15T06:14:15.200Z,93.04
2018-01-15T06:15:15.186Z,92.42
2018-01-15T06:16:15.180Z,92.33
2018-01-15T06:17:15.159Z,92.23
2018-01-15T06:18:15.144Z,92.52
2018-01-15T06:19:15.130Z,92.42
2018-01-15T06:20:15.116Z,92.71
2018-01-15T06:21:15.104Z,92.33
2018-01-15T06:22:15.089Z,92.52
2018-01-15T06:23:15.074Z,92.61
2018-01-15T06:24:15.060Z,92.71
2018-01-15T06:25:15.050Z,92.71
2018-01-15T06:26:15.033Z,92.71
2018-01-15T06:27:15.019Z,92.71
2018-01-15T06:28:15.006Z,92.61
2018-01-15T06:29:14.991Z,92.71
2018-01-15T06:30:14.977Z,92.42
2018-01-15T06:31:14.963Z,91.95
2018-01-15T06:32:14.959Z,91.95
2018-01-15T06:33:14.936Z,91.95
2018-01-15T06:34:14.927Z,92.23
2018-01-15T06:35:14.908Z,91.95
2018-01-15T06:36:14.895Z,92.14
2018-01-15T06:37:14.881Z,91.85
2018-01-15T06:38:14.867Z,92.04
2018-01-15T06:39:14.852Z,92.04
2018-01-15T06:40:14.840Z,91.38
2018-01-15T06:41:14.825Z,91.47
2018-01-15T06:42:14.811Z,91.66
2018-01-15T06:43:14.801Z,91.57
2018-01-15T06:44:14.784Z,91.57
2018-01-15T06:45:14.770Z,91.38
2018-01-15T06:46:14.755Z,91.57
2018-01-15T06:47:14.743Z,91.47
2018-01-15T06:48:14.728Z,91.57
2018-01-15T06:49:14.715Z,91.76
2018-01-15T06:50:14.701Z,91.85
2018-01-15T06:51:14.687Z,91.57
2018-01-15T06:52:14.674Z,91.57
2018-01-15T06:53:14.662Z,91.57
2018-01-15T06:54:14.646Z,91.38
2018-01-15T06:55:14.632Z,91.19
2018-01-15T06:56:14.619Z,90.62
2018-01-15T06:57:14.606Z,90.53
2018-01-15T06:58:14.591Z,91.00
2018-01-15T06:59:14.577Z,90.81
2018-01-15T07:00:14.571Z,90.72
2018-01-15T07:01:14.549Z,90.34
2018-01-15T07:02:14.536Z,90.72
2018-01-15T07:03:14.522Z,91.00
2018-01-15T07:04:14.508Z,90.72
2018-01-15T07:05:14.494Z,91.09
2018-01-15T07:06:14.480Z,91.00
2018-01-15T07:07:14.468Z,90.81
2018-01-15T07:08:14.454Z,90.72
2018-01-15T07:09:14.440Z,90.62
2018-01-15T07:10:14.425Z,91.09
2018-01-15T07:11:14.412Z,91.00
2018-01-15T07:12:14.399Z,91.14
2018-01-15T07:13:14.386Z,91.28
2018-01-15T07:14:14.371Z,91.19
2018-01-15T07:15:14.357Z,91.33
2018-01-15T07:16:14.344Z,91.33
2018-01-15T07:17:14.381Z,91.24
2018-01-15T07:18:14.317Z,91.71
2018-01-15T07:19:14.303Z,91.24
2018-01-15T07:20:14.289Z,91.05
2018-01-15T07:21:14.276Z,90.86
2018-01-15T07:22:14.263Z,90.86
2018-01-15T07:23:14.250Z,90.95
2018-01-15T07:24:14.235Z,90.86
2018-01-15T07:25:14.222Z,91.33
2018-01-15T07:26:14.209Z,92.09
2018-01-15T07:27:14.195Z,91.05
2018-01-15T07:28:14.181Z,90.38
2018-01-15T07:29:14.168Z,89.91
2018-01-15T07:30:14.153Z,90.00
2018-01-15T07:31:14.140Z,89.91
2018-01-15T07:32:14.127Z,89.91
2018-01-15T07:33:14.128Z,89.62
2018-01-15T07:34:14.100Z,90.67
2018-01-15T07:35:14.086Z,90.10
2018-01-15T07:36:14.075Z,90.67
2018-01-15T07:37:14.059Z,90.67
2018-01-15T07:38:14.049Z,90.38
2018-01-15T07:39:14.033Z,90.95
2018-01-15T07:40:14.019Z,90.76
2018-01-15T07:41:14.005Z,91.14
2018-01-15T07:42:13.991Z,90.10
2018-01-15T07:43:13.978Z,89.81
2018-01-15T07:44:13.973Z,89.91
2018-01-15T07:45:13.951Z,90.00
2018-01-15T07:46:13.937Z,90.10
2018-01-15T07:47:13.924Z,90.10
2018-01-15T07:48:13.912Z,90.57
2018-01-15T07:49:13.914Z,90.19
2018-01-15T07:50:13.884Z,90.10
2018-01-15T07:51:13.870Z,90.29
2018-01-15T07:52:13.856Z,90.19
2018-01-15T07:53:13.844Z,90.10
2018-01-15T07:54:13.830Z,89.72
2018-01-15T07:55:13.817Z,89.81
2018-01-15T07:56:13.804Z,89.43
2018-01-15T07:57:13.790Z,89.72
2018-01-15T07:58:13.776Z,89.43
2018-01-15T07:59:13.770Z,89.72
2018-01-15T08:00:13.750Z,89.25
2018-01-15T08:01:13.736Z,88.96
2018-01-15T08:02:13.724Z,89.15
2018-01-15T08:03:13.710Z,88.87
2018-01-15T08:04:13.697Z,89.15
2018-01-15T08:05:13.684Z,88.87
2018-01-15T08:06:13.672Z,88.77
2018-01-15T08:07:13.657Z,89.34
2018-01-15T08:08:13.644Z,89.43
2018-01-15T08:09:13.682Z,89.25
2018-01-15T08:10:13.618Z,89.06
2018-01-15T08:11:13.605Z,88.87
2018-01-15T08:12:13.592Z,88.39
2018-01-15T08:13:13.579Z,88.77
2018-01-15T08:14:13.566Z,88.39
2018-01-15T08:15:13.580Z,88.20
2018-01-15T08:16:13.540Z,88.01
2018-01-15T08:17:13.527Z,88.39
2018-01-15T08:18:13.513Z,88.29
2018-01-15T08:19:13.501Z,88.29
2018-01-15T08:20:13.488Z,88.20
2018-01-15T08:21:13.475Z,88.06
2018-01-15T08:22:13.460Z,87.49
2018-01-15T08:23:13.448Z,87.73
2018-01-15T08:24:13.436Z,87.96
2018-01-15T08:25:13.422Z,87.30
2018-01-15T08:26:13.408Z,87.49
2018-01-15T08:27:13.396Z,87.58
2018-01-15T08:28:13.383Z,87.58
2018-01-15T08:29:13.379Z,87.30
2018-01-15T08:30:13.357Z,87.20
2018-01-15T08:31:13.343Z,86.91
2018-01-15T08:32:13.330Z,86.91
2018-01-15T08:33:13.318Z,87.39
2018-01-15T08:34:13.305Z,87.58
2018-01-15T08:35:13.301Z,87.96
2018-01-15T08:36:13.280Z,87.39
2018-01-15T08:37:13.267Z,87.39
2018-01-15T08:38:13.254Z,87.39
2018-01-15T08:39:13.241Z,87.11
2018-01-15T08:40:13.230Z,87.01
2018-01-15T08:41:13.216Z,87.01
2018-01-15T08:42:13.203Z,87.20
2018-01-15T08:43:13.190Z,86.91
2018-01-15T08:44:13.178Z,87.01
2018-01-15T08:45:13.173Z,87.49
2018-01-15T08:46:13.152Z,86.25
2018-01-15T08:47:13.139Z,86.72
2018-01-15T08:48:13.127Z,86.25
2018-01-15T08:49:13.115Z,86.82
2018-01-15T08:50:13.101Z,86.63
2018-01-15T08:51:13.088Z,86.54
2018-01-15T08:52:13.075Z,87.20
2018-01-15T08:53:13.063Z,87.11
2018-01-15T08:54:13.050Z,87.11
2018-01-15T08:55:13.038Z,86.82
2018-01-15T08:56:13.025Z,86.82
2018-01-15T08:57:13.012Z,86.91
2018-01-15T08:58:12.999Z,87.01
2018-01-15T08:59:12.986Z,86.82
2018-01-15T09:00:12.973Z,86.63
2018-01-15T09:01:13.007Z,86.72
2018-01-15T09:02:12.947Z,86.82
2018-01-15T09:03:12.935Z,86.54
2018-01-15T09:04:12.979Z,87.01
2018-01-15T09:05:12.909Z,87.01
2018-01-15T09:06:12.896Z,86.44
2018-01-15T09:07:12.884Z,86.82
2018-01-15T09:08:12.871Z,86.63
2018-01-15T09:09:12.859Z,86.63
2018-01-15T09:10:12.846Z,87.01
2018-01-15T09:11:12.834Z,86.44
2018-01-15T09:12:12.822Z,86.49
2018-01-15T09:13:12.808Z,86.72
2018-01-15T09:14:12.795Z,87.20
2018-01-15T09:15:12.782Z,86.72
2018-01-15T09:16:12.771Z,86.63
2018-01-15T09:17:12.760Z,87.24
2018-01-15T09:18:12.743Z,86.77
2018-01-15T09:19:12.734Z,87.05
2018-01-15T09:20:12.720Z,86.77
2018-01-15T09:21:12.710Z,86.87
2018-01-15T09:22:12.695Z,87.05
2018-01-15T09:23:12.682Z,86.87
2018-01-15T09:24:12.669Z,86.20
2018-01-15T09:25:12.656Z,86.20
2018-01-15T09:26:12.645Z,86.01
2018-01-15T09:27:12.633Z,86.39
2018-01-15T09:28:12.619Z,86.30
2018-01-15T09:29:12.607Z,86.30
2018-01-15T09:30:12.594Z,86.20
2018-01-15T09:31:12.582Z,86.20
2018-01-15T09:32:12.570Z,86.30
2018-01-15T09:33:12.557Z,85.91
2018-01-15T09:34:12.544Z,86.01
2018-01-15T09:35:12.532Z,85.91
2018-01-15T09:36:12.520Z,86.20
2018-01-15T09:37:12.508Z,86.39
2018-01-15T09:38:12.494Z,86.49
2018-01-15T09:39:12.486Z,86.20
2018-01-15T09:40:12.470Z,86.58
2018-01-15T09:41:12.469Z,86.30
2018-01-15T09:42:12.468Z,86.30
2018-01-15T09:43:12.450Z,86.20
2018-01-15T09:44:12.420Z,86.39
2018-01-15T09:45:12.408Z,86.01
2018-01-15T09:46:12.396Z,86.01
2018-01-15T09:47:12.383Z,86.01
2018-01-15T09:48:12.371Z,86.01
2018-01-15T09:49:12.359Z,86.68
2018-01-15T09:50:12.346Z,86.63
2018-01-15T09:51:12.334Z,86.30
2018-01-15T09:52:12.322Z,86.11
2018-01-15T09:53:12.311Z,86.20
2018-01-15T09:54:12.297Z,85.44
2018-01-15T09:55:12.284Z,85.82
2018-01-15T09:56:12.273Z,85.91
2018-01-15T09:57:12.261Z,86.20
2018-01-15T09:58:12.248Z,86.20
2018-01-15T09:59:12.236Z,85.91
2018-01-15T10:00:12.223Z,86.30
2018-01-15T10:01:12.212Z,86.39
2018-01-15T10:02:12.200Z,86.20
2018-01-15T10:03:12.187Z,86.39
2018-01-15T10:04:12.175Z,86.39
2018-01-15T10:05:12.163Z,86.20
2018-01-15T10:06:12.150Z,85.91
2018-01-15T10:07:12.139Z,86.20
2018-01-15T10:08:12.127Z,86.01
2018-01-15T10:09:12.114Z,85.82
2018-01-15T10:10:12.102Z,86.58
2018-01-15T10:11:12.090Z,86.20
2018-01-15T10:12:12.085Z,85.72
2018-01-15T10:13:12.067Z,86.30
2018-01-15T10:14:12.053Z,86.39
2018-01-15T10:15:12.040Z,86.30
2018-01-15T10:16:12.044Z,86.30
2018-01-15T10:17:12.018Z,86.11
2018-01-15T10:18:12.004Z,86.01
2018-01-15T10:19:11.992Z,86.91
2018-01-15T10:20:11.980Z,86.15
2018-01-15T10:21:11.968Z,86.24
2018-01-15T10:22:11.955Z,86.34
2018-01-15T10:23:11.944Z,86.24
2018-01-15T10:24:11.932Z,86.05
2018-01-15T10:25:11.921Z,85.86
2018-01-15T10:26:11.913Z,85.86
2018-01-15T10:27:11.922Z,86.34
2018-01-15T10:28:11.882Z,86.24
2018-01-15T10:29:11.872Z,86.15
2018-01-15T10:30:11.860Z,85.96
2018-01-15T10:31:11.847Z,86.24
2018-01-15T10:32:11.835Z,86.43
2018-01-15T10:33:11.823Z,86.15
2018-01-15T10:34:11.811Z,86.15
2018-01-15T10:35:11.805Z,86.43
2018-01-15T10:36:11.789Z,86.24
2018-01-15T10:37:11.775Z,85.86
2018-01-15T10:38:11.762Z,86.05
2018-01-15T10:39:11.760Z,86.05
2018-01-15T10:40:11.740Z,85.96
2018-01-15T10:41:11.731Z,86.05
2018-01-15T10:42:11.768Z,86.82
2018-01-15T10:43:11.704Z,86.05
2018-01-15T10:44:11.703Z,86.43
2018-01-15T10:45:11.681Z,86.53
2018-01-15T10:46:11.669Z,86.43
2018-01-15T10:47:11.657Z,86.05
2018-01-15T10:48:11.645Z,86.05
2018-01-15T10:49:11.676Z,85.86
2018-01-15T10:50:11.622Z,86.34
2018-01-15T10:51:11.609Z,86.24
2018-01-15T10:52:11.598Z,86.24
2018-01-15T10:53:11.589Z,86.43
2018-01-15T10:54:11.575Z,86.34
2018-01-15T10:55:11.568Z,86.34
2018-01-15T10:56:11.551Z,86.01
2018-01-15T10:57:11.539Z,86.24
2018-01-15T10:58:11.526Z,86.53
2018-01-15T10:59:11.515Z,86.24
2018-01-15T11:00:11.505Z,86.43
2018-01-15T11:01:11.491Z,86.34
2018-01-15T11:02:11.504Z,85.96
2018-01-15T11:03:11.470Z,86.34
2018-01-15T11:04:11.456Z,86.34
2018-01-15T11:05:11.444Z,86.15
2018-01-15T11:06:11.432Z,86.24
2018-01-15T11:07:11.420Z,86.05
2018-01-15T11:08:11.408Z,85.49
2018-01-15T11:09:11.399Z,85.58
2018-01-15T11:10:11.385Z,86.43
2018-01-15T11:11:11.374Z,85.20
2018-01-15T11:12:11.362Z,85.77
2018-01-15T11:13:11.351Z,85.86
2018-01-15T11:14:11.339Z,86.05
2018-01-15T11:15:11.329Z,85.39
2018-01-15T11:16:11.316Z,86.05
2018-01-15T11:17:11.303Z,86.24
2018-01-15T11:18:11.292Z,85.49
2018-01-15T11:19:11.281Z,86.05
2018-01-15T11:20:11.279Z,86.34
2018-01-15T11:21:11.257Z,85.96
2018-01-15T11:22:11.244Z,86.24
2018-01-15T11:23:11.232Z,85.77
2018-01-15T11:24:11.222Z,86.24
2018-01-15T11:25:11.209Z,86.24
2018-01-15T11:26:11.211Z,86.53
2018-01-15T11:27:11.185Z,86.53
2018-01-15T11:28:11.173Z,86.91
2018-01-15T11:29:11.162Z,87.43
2018-01-15T11:30:11.158Z,88.01
2018-01-15T11:31:11.137Z,88.01
2018-01-15T11:32:11.125Z,88.39
2018-01-15T11:33:11.113Z,89.33
2018-01-15T11:34:11.100Z,89.33
2018-01-15T11:35:11.097Z,89.81
2018-01-15T11:36:11.076Z,89.90
2018-01-15T11:37:11.064Z,90.00
2018-01-15T11:38:11.051Z,90.00
2018-01-15T11:39:11.041Z,90.19
2018-01-15T11:40:11.036Z,90.00
2018-01-15T11:41:11.017Z,90.57
2018-01-15T11:42:11.002Z,90.38
2018-01-15T11:43:10.991Z,90.09
2018-01-15T11:44:10.978Z,91.24
2018-01-15T11:45:10.966Z,90.28
2018-01-15T11:46:10.962Z,90.76
2018-01-15T11:47:10.941Z,90.38
2018-01-15T11:48:10.930Z,89.72
2018-01-15T11:49:10.917Z,89.90
2018-01-15T11:50:10.905Z,89.05
2018-01-15T11:51:10.893Z,89.05
2018-01-15T11:52:10.881Z,89.05
2018-01-15T11:53:10.871Z,89.33
2018-01-15T11:54:10.856Z,88.76
2018-01-15T11:55:10.845Z,89.14
2018-01-15T11:56:10.840Z,89.33
2018-01-15T11:57:10.820Z,89.05
2018-01-15T11:58:10.806Z,88.48
2018-01-15T11:59:10.795Z,88.67
2018-01-15T12:00:10.783Z,88.86
2018-01-15T12:01:10.772Z,88.95
2018-01-15T12:02:10.759Z,88.95
2018-01-15T12:03:10.745Z,88.95
2018-01-15T12:04:10.734Z,89.14
2018-01-15T12:05:10.728Z,89.33
2018-01-15T12:06:10.710Z,88.67
2018-01-15T12:07:10.697Z,88.29
2018-01-15T12:08:10.685Z,89.43
2018-01-15T12:09:10.673Z,88.48
2018-01-15T12:10:10.667Z,88.29
2018-01-15T12:11:10.649Z,88.57
2018-01-15T12:12:10.638Z,88.20
2018-01-15T12:13:10.625Z,87.82
2018-01-15T12:14:10.638Z,88.34
2018-01-15T12:15:10.604Z,88.34
2018-01-15T12:16:10.590Z,87.67
2018-01-15T12:17:10.578Z,88.15
2018-01-15T12:18:10.565Z,87.57
2018-01-15T12:19:10.552Z,87.67
2018-01-15T12:20:10.574Z,87.19
2018-01-15T12:21:10.554Z,87.29
2018-01-15T12:22:10.518Z,87.57
2018-01-15T12:23:10.505Z,87.19
2018-01-15T12:24:10.494Z,86.72
2018-01-15T12:25:10.483Z,87.29
2018-01-15T12:26:10.471Z,86.63
2018-01-15T12:27:10.460Z,86.43
2018-01-15T12:28:10.447Z,86.05
2018-01-15T12:29:10.436Z,86.24
2018-01-15T12:30:10.423Z,86.24
2018-01-15T12:31:10.412Z,86.72
2018-01-15T12:32:10.400Z,86.43
2018-01-15T12:33:10.390Z,86.91
2018-01-15T12:34:10.376Z,86.24
2018-01-15T12:35:10.367Z,85.96
2018-01-15T12:36:10.362Z,85.96
2018-01-15T12:37:10.343Z,85.86
2018-01-15T12:38:10.329Z,86.24
2018-01-15T12:39:10.317Z,86.53
2018-01-15T12:40:10.311Z,86.34
2018-01-15T12:41:10.295Z,86.24
2018-01-15T12:42:10.282Z,86.05
2018-01-15T12:43:10.276Z,86.34
2018-01-15T12:44:10.263Z,85.58
2018-01-15T12:45:10.247Z,85.68
2018-01-15T12:46:10.235Z,85.11
2018-01-15T12:47:10.224Z,85.39
2018-01-15T12:48:10.212Z,85.58
2018-01-15T12:49:10.200Z,85.01
2018-01-15T12:50:10.187Z,85.11
2018-01-15T12:51:10.176Z,85.20
2018-01-15T12:52:10.164Z,84.53